sensor_id;sensor_type;location;lat;lon;timestamp;pressure;altitude;pressure_sealevel;temperature;humidity
68077;BME280;54866;53.458;14.540;2022-07-29T00:02:12;101329.17;;;13.39;73.64
68077;BME280;54866;53.458;14.540;2022-07-29T00:04:42;101333.11;;;13.36;74.26
68077;BME280;54866;53.458;14.540;2022-07-29T00:07:11;101325.58;;;13.33;74.36
68077;BME280;54866;53.458;14.540;2022-07-29T00:09:41;101331.09;;;13.30;74.18
68077;BME280;54866;53.458;14.540;2022-07-29T00:12:11;101331.70;;;13.29;73.78
68077;BME280;54866;53.458;14.540;2022-07-29T00:14:41;101329.77;;;13.26;74.24
68077;BME280;54866;53.458;14.540;2022-07-29T00:17:11;101327.32;;;13.24;75.08
68077;BME280;54866;53.458;14.540;2022-07-29T00:19:41;101326.33;;;13.23;75.04
68077;BME280;54866;53.458;14.540;2022-07-29T00:22:11;101325.34;;;13.22;75.49
68077;BME280;54866;53.458;14.540;2022-07-29T00:24:41;101322.57;;;13.22;75.52
68077;BME280;54866;53.458;14.540;2022-07-29T00:27:11;101319.94;;;13.21;75.30
68077;BME280;54866;53.458;14.540;2022-07-29T00:29:41;101317.50;;;13.21;75.20
68077;BME280;54866;53.458;14.540;2022-07-29T00:32:11;101315.85;;;13.19;75.22
68077;BME280;54866;53.458;14.540;2022-07-29T00:34:41;101318.94;;;13.18;75.89
68077;BME280;54866;53.458;14.540;2022-07-29T00:37:28;101313.86;;;13.17;76.27
68077;BME280;54866;53.458;14.540;2022-07-29T00:39:58;101307.19;;;13.17;76.49
68077;BME280;54866;53.458;14.540;2022-07-29T00:42:27;101310.38;;;13.19;76.63
68077;BME280;54866;53.458;14.540;2022-07-29T00:44:57;101312.94;;;13.20;76.45
68077;BME280;54866;53.458;14.540;2022-07-29T00:47:27;101308.83;;;13.21;76.05
68077;BME280;54866;53.458;14.540;2022-07-29T00:49:56;101314.65;;;13.21;76.65
68077;BME280;54866;53.458;14.540;2022-07-29T00:52:26;101306.04;;;13.20;76.63
68077;BME280;54866;53.458;14.540;2022-07-29T00:54:57;101304.53;;;13.19;76.73
68077;BME280;54866;53.458;14.540;2022-07-29T00:57:27;101304.95;;;13.18;76.85
68077;BME280;54866;53.458;14.540;2022-07-29T00:59:57;101302.70;;;13.17;76.94
68077;BME280;54866;53.458;14.540;2022-07-29T01:02:27;101299.66;;;13.18;77.22
68077;BME280;54866;53.458;14.540;2022-07-29T01:04:57;101299.16;;;13.17;77.71
68077;BME280;54866;53.458;14.540;2022-07-29T01:07:29;101301.23;;;13.18;77.35
68077;BME280;54866;53.458;14.540;2022-07-29T01:09:59;101303.62;;;13.17;77.65
68077;BME280;54866;53.458;14.540;2022-07-29T01:12:31;101301.11;;;13.17;78.01
68077;BME280;54866;53.458;14.540;2022-07-29T01:15:03;101304.96;;;13.20;78.21
68077;BME280;54866;53.458;14.540;2022-07-29T01:17:39;101306.61;;;13.22;77.86
68077;BME280;54866;53.458;14.540;2022-07-29T01:20:20;101306.96;;;13.22;78.08
68077;BME280;54866;53.458;14.540;2022-07-29T01:23:13;101307.23;;;13.23;78.33
68077;BME280;54866;53.458;14.540;2022-07-29T01:25:58;101304.55;;;13.24;77.87
68077;BME280;54866;53.458;14.540;2022-07-29T01:28:52;101301.27;;;13.22;78.69
68077;BME280;54866;53.458;14.540;2022-07-29T01:31:31;101301.14;;;13.24;78.41
68077;BME280;54866;53.458;14.540;2022-07-29T01:34:05;101299.77;;;13.24;78.49
68077;BME280;54866;53.458;14.540;2022-07-29T01:36:40;101299.45;;;13.23;79.18
68077;BME280;54866;53.458;14.540;2022-07-29T01:39:14;101301.36;;;13.25;79.09
68077;BME280;54866;53.458;14.540;2022-07-29T01:41:50;101302.86;;;13.26;79.01
68077;BME280;54866;53.458;14.540;2022-07-29T01:44:30;101300.06;;;13.26;79.17
68077;BME280;54866;53.458;14.540;2022-07-29T01:47:15;101299.83;;;13.27;79.35
68077;BME280;54866;53.458;14.540;2022-07-29T01:49:50;101291.35;;;13.27;79.82
68077;BME280;54866;53.458;14.540;2022-07-29T01:52:25;101289.40;;;13.27;80.28
68077;BME280;54866;53.458;14.540;2022-07-29T01:54:59;101284.12;;;13.27;80.45
68077;BME280;54866;53.458;14.540;2022-07-29T01:57:34;101282.81;;;13.27;80.50
68077;BME280;54866;53.458;14.540;2022-07-29T02:00:08;101286.58;;;13.29;80.73
68077;BME280;54866;53.458;14.540;2022-07-29T02:02:40;101282.23;;;13.30;80.68
68077;BME280;54866;53.458;14.540;2022-07-29T02:05:12;101278.09;;;13.31;80.89
68077;BME280;54866;53.458;14.540;2022-07-29T02:07:44;101276.77;;;13.33;81.01
68077;BME280;54866;53.458;14.540;2022-07-29T02:10:17;101274.35;;;13.31;81.44
68077;BME280;54866;53.458;14.540;2022-07-29T02:12:49;101273.44;;;13.30;81.63
68077;BME280;54866;53.458;14.540;2022-07-29T02:15:20;101268.18;;;13.29;81.89
68077;BME280;54866;53.458;14.540;2022-07-29T02:17:53;101264.13;;;13.29;82.09
68077;BME280;54866;53.458;14.540;2022-07-29T02:20:26;101262.62;;;13.30;82.27
68077;BME280;54866;53.458;14.540;2022-07-29T02:22:58;101268.40;;;13.28;82.36
68077;BME280;54866;53.458;14.540;2022-07-29T02:25:29;101260.89;;;13.29;82.23
68077;BME280;54866;53.458;14.540;2022-07-29T02:28:01;101254.73;;;13.25;82.35
68077;BME280;54866;53.458;14.540;2022-07-29T02:30:33;101256.88;;;13.26;82.33
68077;BME280;54866;53.458;14.540;2022-07-29T02:33:04;101258.88;;;13.26;82.28
68077;BME280;54866;53.458;14.540;2022-07-29T02:35:35;101256.52;;;13.24;82.46
68077;BME280;54866;53.458;14.540;2022-07-29T02:38:06;101255.52;;;13.23;82.88
68077;BME280;54866;53.458;14.540;2022-07-29T02:40:54;101256.09;;;13.23;82.81
68077;BME280;54866;53.458;14.540;2022-07-29T02:43:26;101258.48;;;13.22;83.22
68077;BME280;54866;53.458;14.540;2022-07-29T02:45:58;101255.36;;;13.19;83.38
68077;BME280;54866;53.458;14.540;2022-07-29T02:48:34;101250.79;;;13.16;83.53
68077;BME280;54866;53.458;14.540;2022-07-29T02:51:11;101250.48;;;13.13;83.95
68077;BME280;54866;53.458;14.540;2022-07-29T02:53:43;101250.64;;;13.12;83.84
68077;BME280;54866;53.458;14.540;2022-07-29T02:56:16;101244.66;;;13.09;83.99
68077;BME280;54866;53.458;14.540;2022-07-29T02:58:52;101244.73;;;13.08;84.10
68077;BME280;54866;53.458;14.540;2022-07-29T03:01:25;101243.81;;;13.08;84.13
68077;BME280;54866;53.458;14.540;2022-07-29T03:04:00;101245.86;;;13.09;84.13
68077;BME280;54866;53.458;14.540;2022-07-29T03:06:31;101241.66;;;13.09;84.38
68077;BME280;54866;53.458;14.540;2022-07-29T03:09:03;101236.39;;;13.08;84.73
68077;BME280;54866;53.458;14.540;2022-07-29T03:11:33;101232.11;;;13.09;85.01
68077;BME280;54866;53.458;14.540;2022-07-29T03:14:04;101225.89;;;13.09;85.01
68077;BME280;54866;53.458;14.540;2022-07-29T03:16:34;101224.48;;;13.09;85.13
68077;BME280;54866;53.458;14.540;2022-07-29T03:19:06;101221.95;;;13.09;85.28
68077;BME280;54866;53.458;14.540;2022-07-29T03:21:36;101223.08;;;13.11;85.72
68077;BME280;54866;53.458;14.540;2022-07-29T03:24:06;101227.48;;;13.13;85.67
68077;BME280;54866;53.458;14.540;2022-07-29T03:26:36;101224.40;;;13.14;85.84
68077;BME280;54866;53.458;14.540;2022-07-29T03:29:06;101219.65;;;13.18;85.30
68077;BME280;54866;53.458;14.540;2022-07-29T03:31:35;101220.83;;;13.22;85.56
68077;BME280;54866;53.458;14.540;2022-07-29T03:34:05;101220.45;;;13.26;85.33
68077;BME280;54866;53.458;14.540;2022-07-29T03:36:35;101221.02;;;13.30;85.10
68077;BME280;54866;53.458;14.540;2022-07-29T03:39:06;101227.92;;;13.32;85.37
68077;BME280;54866;53.458;14.540;2022-07-29T03:41:38;101230.89;;;13.35;85.45
68077;BME280;54866;53.458;14.540;2022-07-29T03:44:10;101231.52;;;13.38;85.19
68077;BME280;54866;53.458;14.540;2022-07-29T03:46:41;101227.89;;;13.42;85.11
68077;BME280;54866;53.458;14.540;2022-07-29T03:49:12;101229.33;;;13.47;85.17
68077;BME280;54866;53.458;14.540;2022-07-29T03:51:44;101230.20;;;13.52;85.04
68077;BME280;54866;53.458;14.540;2022-07-29T03:54:14;101225.27;;;13.56;84.97
68077;BME280;54866;53.458;14.540;2022-07-29T03:56:46;101227.84;;;13.61;84.67
68077;BME280;54866;53.458;14.540;2022-07-29T03:59:19;101232.40;;;13.66;84.56
68077;BME280;54866;53.458;14.540;2022-07-29T04:01:50;101234.89;;;13.70;84.50
68077;BME280;54866;53.458;14.540;2022-07-29T04:04:20;101240.02;;;13.75;84.21
68077;BME280;54866;53.458;14.540;2022-07-29T04:06:50;101244.33;;;13.80;84.44
68077;BME280;54866;53.458;14.540;2022-07-29T04:09:20;101238.42;;;13.85;83.69
68077;BME280;54866;53.458;14.540;2022-07-29T04:11:50;101242.27;;;13.90;83.56
68077;BME280;54866;53.458;14.540;2022-07-29T04:14:20;101241.27;;;13.96;83.33
68077;BME280;54866;53.458;14.540;2022-07-29T04:16:50;101242.26;;;14.01;83.09
68077;BME280;54866;53.458;14.540;2022-07-29T04:19:21;101245.37;;;14.08;82.70
68077;BME280;54866;53.458;14.540;2022-07-29T04:21:50;101242.38;;;14.14;82.54
68077;BME280;54866;53.458;14.540;2022-07-29T04:24:20;101247.22;;;14.22;82.23
68077;BME280;54866;53.458;14.540;2022-07-29T04:26:50;101245.90;;;14.29;81.99
68077;BME280;54866;53.458;14.540;2022-07-29T04:29:20;101244.41;;;14.34;81.81
68077;BME280;54866;53.458;14.540;2022-07-29T04:31:50;101248.50;;;14.38;81.73
68077;BME280;54866;53.458;14.540;2022-07-29T04:34:20;101249.97;;;14.41;81.49
68077;BME280;54866;53.458;14.540;2022-07-29T04:36:49;101249.89;;;14.42;81.42
68077;BME280;54866;53.458;14.540;2022-07-29T04:39:19;101249.15;;;14.45;81.20
68077;BME280;54866;53.458;14.540;2022-07-29T04:41:49;101245.44;;;14.45;81.42
68077;BME280;54866;53.458;14.540;2022-07-29T04:44:19;101250.41;;;14.47;81.11
68077;BME280;54866;53.458;14.540;2022-07-29T04:46:49;101251.04;;;14.50;81.18
68077;BME280;54866;53.458;14.540;2022-07-29T04:49:19;101252.13;;;14.56;80.89
68077;BME280;54866;53.458;14.540;2022-07-29T04:51:49;101255.89;;;14.66;80.59
68077;BME280;54866;53.458;14.540;2022-07-29T04:54:18;101247.48;;;14.77;80.26
68077;BME280;54866;53.458;14.540;2022-07-29T04:56:48;101251.36;;;14.89;79.80
68077;BME280;54866;53.458;14.540;2022-07-29T04:59:18;101248.36;;;14.97;79.50
68077;BME280;54866;53.458;14.540;2022-07-29T05:01:48;101249.77;;;15.03;79.17
68077;BME280;54866;53.458;14.540;2022-07-29T05:04:17;101243.42;;;15.09;78.80
68077;BME280;54866;53.458;14.540;2022-07-29T05:06:47;101243.70;;;15.16;78.56
68077;BME280;54866;53.458;14.540;2022-07-29T05:09:17;101240.30;;;15.24;78.21
68077;BME280;54866;53.458;14.540;2022-07-29T05:11:47;101242.46;;;15.31;77.92
68077;BME280;54866;53.458;14.540;2022-07-29T05:14:17;101244.48;;;15.43;77.50
68077;BME280;54866;53.458;14.540;2022-07-29T05:16:46;101242.69;;;15.55;77.09
68077;BME280;54866;53.458;14.540;2022-07-29T05:19:19;101236.89;;;15.64;76.81
68077;BME280;54866;53.458;14.540;2022-07-29T05:21:49;101240.66;;;15.69;76.34
68077;BME280;54866;53.458;14.540;2022-07-29T05:24:19;101238.30;;;15.72;76.19
68077;BME280;54866;53.458;14.540;2022-07-29T05:26:48;101234.09;;;15.77;75.99
68077;BME280;54866;53.458;14.540;2022-07-29T05:29:18;101242.09;;;15.90;75.82
68077;BME280;54866;53.458;14.540;2022-07-29T05:31:48;101242.68;;;16.00;75.31
68077;BME280;54866;53.458;14.540;2022-07-29T05:34:19;101231.39;;;16.03;74.96
68077;BME280;54866;53.458;14.540;2022-07-29T05:36:49;101239.35;;;16.09;74.74
68077;BME280;54866;53.458;14.540;2022-07-29T05:39:19;101234.66;;;16.11;74.53
68077;BME280;54866;53.458;14.540;2022-07-29T05:41:50;101239.02;;;16.20;74.22
68077;BME280;54866;53.458;14.540;2022-07-29T05:44:20;101230.50;;;16.33;73.54
68077;BME280;54866;53.458;14.540;2022-07-29T05:46:50;101227.77;;;16.82;72.18
68077;BME280;54866;53.458;14.540;2022-07-29T05:49:20;101220.24;;;18.36;67.56
68077;BME280;54866;53.458;14.540;2022-07-29T05:51:49;101219.15;;;20.14;62.67
68077;BME280;54866;53.458;14.540;2022-07-29T05:54:19;101213.08;;;21.66;57.66
68077;BME280;54866;53.458;14.540;2022-07-29T05:56:49;101209.11;;;22.97;53.33
68077;BME280;54866;53.458;14.540;2022-07-29T05:59:19;101208.08;;;23.58;50.25
68077;BME280;54866;53.458;14.540;2022-07-29T06:01:48;101205.95;;;23.72;48.65
68077;BME280;54866;53.458;14.540;2022-07-29T06:04:18;101207.92;;;23.60;48.85
68077;BME280;54866;53.458;14.540;2022-07-29T06:06:48;101208.78;;;23.95;49.32
68077;BME280;54866;53.458;14.540;2022-07-29T06:09:18;101210.55;;;23.75;47.55
68077;BME280;54866;53.458;14.540;2022-07-29T06:11:47;101204.65;;;24.13;46.76
68077;BME280;54866;53.458;14.540;2022-07-29T06:14:17;101205.05;;;24.92;45.19
68077;BME280;54866;53.458;14.540;2022-07-29T06:16:47;101201.39;;;25.52;43.64
68077;BME280;54866;53.458;14.540;2022-07-29T06:19:17;101197.97;;;26.25;43.88
68077;BME280;54866;53.458;14.540;2022-07-29T06:21:47;101193.70;;;26.45;42.54
68077;BME280;54866;53.458;14.540;2022-07-29T06:24:17;101190.23;;;27.02;41.79
68077;BME280;54866;53.458;14.540;2022-07-29T06:26:47;101186.48;;;26.94;40.24
68077;BME280;54866;53.458;14.540;2022-07-29T06:29:17;101191.48;;;26.44;40.97
68077;BME280;54866;53.458;14.540;2022-07-29T06:31:47;101193.32;;;26.19;41.72
68077;BME280;54866;53.458;14.540;2022-07-29T06:34:17;101189.77;;;26.91;40.11
68077;BME280;54866;53.458;14.540;2022-07-29T06:36:47;101193.51;;;27.27;38.98
68077;BME280;54866;53.458;14.540;2022-07-29T06:39:18;101202.75;;;27.38;39.47
68077;BME280;54866;53.458;14.540;2022-07-29T06:41:49;101202.00;;;26.88;40.10
68077;BME280;54866;53.458;14.540;2022-07-29T06:44:19;101201.22;;;26.74;40.20
68077;BME280;54866;53.458;14.540;2022-07-29T06:46:49;101205.47;;;26.79;39.95
68077;BME280;54866;53.458;14.540;2022-07-29T06:49:19;101207.15;;;26.59;40.49
68077;BME280;54866;53.458;14.540;2022-07-29T06:51:50;101206.58;;;26.41;41.21
68077;BME280;54866;53.458;14.540;2022-07-29T06:54:19;101216.44;;;25.89;42.28
68077;BME280;54866;53.458;14.540;2022-07-29T06:56:49;101210.92;;;25.07;43.67
68077;BME280;54866;53.458;14.540;2022-07-29T06:59:19;101214.01;;;24.26;45.32
68077;BME280;54866;53.458;14.540;2022-07-29T07:01:49;101212.58;;;23.83;46.58
68077;BME280;54866;53.458;14.540;2022-07-29T07:04:19;101212.34;;;23.19;48.43
68077;BME280;54866;53.458;14.540;2022-07-29T07:06:49;101212.61;;;22.71;49.71
68077;BME280;54866;53.458;14.540;2022-07-29T07:09:19;101214.30;;;22.08;51.35
68077;BME280;54866;53.458;14.540;2022-07-29T07:11:48;101213.27;;;21.89;51.85
68077;BME280;54866;53.458;14.540;2022-07-29T07:14:18;101207.40;;;21.92;52.96
68077;BME280;54866;53.458;14.540;2022-07-29T07:16:48;101211.08;;;21.97;53.03
68077;BME280;54866;53.458;14.540;2022-07-29T07:19:18;101209.42;;;22.06;52.82
68077;BME280;54866;53.458;14.540;2022-07-29T07:21:48;101208.92;;;22.05;52.55
68077;BME280;54866;53.458;14.540;2022-07-29T07:24:18;101209.09;;;22.13;52.75
68077;BME280;54866;53.458;14.540;2022-07-29T07:26:48;101208.13;;;22.32;52.58
68077;BME280;54866;53.458;14.540;2022-07-29T07:29:18;101207.70;;;22.27;52.21
68077;BME280;54866;53.458;14.540;2022-07-29T07:31:48;101205.83;;;22.10;52.50
68077;BME280;54866;53.458;14.540;2022-07-29T07:34:18;101204.02;;;21.99;53.15
68077;BME280;54866;53.458;14.540;2022-07-29T07:36:47;101199.98;;;22.02;53.17
68077;BME280;54866;53.458;14.540;2022-07-29T07:39:17;101199.64;;;22.12;53.45
68077;BME280;54866;53.458;14.540;2022-07-29T07:41:47;101194.91;;;22.22;53.28
68077;BME280;54866;53.458;14.540;2022-07-29T07:44:17;101195.49;;;22.26;53.23
68077;BME280;54866;53.458;14.540;2022-07-29T07:46:47;101198.25;;;22.43;52.81
68077;BME280;54866;53.458;14.540;2022-07-29T07:49:16;101192.89;;;22.60;52.86
68077;BME280;54866;53.458;14.540;2022-07-29T07:51:46;101197.13;;;22.70;51.84
68077;BME280;54866;53.458;14.540;2022-07-29T07:54:16;101194.16;;;22.74;51.65
68077;BME280;54866;53.458;14.540;2022-07-29T07:56:46;101194.95;;;22.78;51.44
68077;BME280;54866;53.458;14.540;2022-07-29T07:59:17;101192.98;;;22.76;51.11
68077;BME280;54866;53.458;14.540;2022-07-29T08:01:47;101195.52;;;22.79;51.45
68077;BME280;54866;53.458;14.540;2022-07-29T08:04:16;101195.81;;;22.81;51.39
68077;BME280;54866;53.458;14.540;2022-07-29T08:06:46;101197.00;;;22.95;51.45
68077;BME280;54866;53.458;14.540;2022-07-29T08:09:17;101198.31;;;23.12;51.39
68077;BME280;54866;53.458;14.540;2022-07-29T08:11:47;101198.59;;;23.36;51.03
68077;BME280;54866;53.458;14.540;2022-07-29T08:14:17;101199.70;;;23.70;49.71
68077;BME280;54866;53.458;14.540;2022-07-29T08:16:47;101197.83;;;23.97;48.58
68077;BME280;54866;53.458;14.540;2022-07-29T08:19:17;101192.95;;;24.26;47.80
68077;BME280;54866;53.458;14.540;2022-07-29T08:21:47;101191.98;;;24.42;47.66
68077;BME280;54866;53.458;14.540;2022-07-29T08:24:17;101187.29;;;24.40;47.36
68077;BME280;54866;53.458;14.540;2022-07-29T08:27:04;101191.10;;;24.28;47.26
68077;BME280;54866;53.458;14.540;2022-07-29T08:29:34;101191.73;;;24.41;46.67
68077;BME280;54866;53.458;14.540;2022-07-29T08:32:04;101190.80;;;24.49;45.97
68077;BME280;54866;53.458;14.540;2022-07-29T08:34:35;101185.16;;;24.36;46.38
68077;BME280;54866;53.458;14.540;2022-07-29T08:37:05;101195.65;;;24.30;46.53
68077;BME280;54866;53.458;14.540;2022-07-29T08:39:34;101199.30;;;24.25;46.44
68077;BME280;54866;53.458;14.540;2022-07-29T08:42:04;101195.70;;;24.11;46.45
68077;BME280;54866;53.458;14.540;2022-07-29T08:44:35;101195.30;;;23.97;46.50
68077;BME280;54866;53.458;14.540;2022-07-29T08:47:05;101201.62;;;23.79;45.50
68077;BME280;54866;53.458;14.540;2022-07-29T08:49:36;101198.82;;;23.80;45.43
68077;BME280;54866;53.458;14.540;2022-07-29T08:52:07;101204.04;;;23.75;45.56
68077;BME280;54866;53.458;14.540;2022-07-29T08:54:38;101199.65;;;23.77;45.47
68077;BME280;54866;53.458;14.540;2022-07-29T08:57:08;101201.47;;;23.90;45.15
68077;BME280;54866;53.458;14.540;2022-07-29T08:59:38;101204.36;;;24.04;44.87
68077;BME280;54866;53.458;14.540;2022-07-29T09:02:15;101201.24;;;24.09;45.12
68077;BME280;54866;53.458;14.540;2022-07-29T09:04:48;101204.00;;;24.42;44.88
68077;BME280;54866;53.458;14.540;2022-07-29T09:07:18;101202.59;;;24.76;44.34
68077;BME280;54866;53.458;14.540;2022-07-29T09:09:48;101202.73;;;24.83;42.87
68077;BME280;54866;53.458;14.540;2022-07-29T09:12:18;101199.91;;;24.98;42.42
68077;BME280;54866;53.458;14.540;2022-07-29T09:14:50;101198.96;;;25.11;42.46
68077;BME280;54866;53.458;14.540;2022-07-29T09:17:40;101198.72;;;25.34;41.72
68077;BME280;54866;53.458;14.540;2022-07-29T09:20:13;101195.61;;;25.50;41.82
68077;BME280;54866;53.458;14.540;2022-07-29T09:22:42;101197.51;;;25.69;41.65
68077;BME280;54866;53.458;14.540;2022-07-29T09:25:12;101199.44;;;25.77;41.58
68077;BME280;54866;53.458;14.540;2022-07-29T09:27:42;101194.73;;;25.76;41.22
68077;BME280;54866;53.458;14.540;2022-07-29T09:30:19;101187.49;;;25.63;41.22
68077;BME280;54866;53.458;14.540;2022-07-29T09:32:58;101189.27;;;25.51;41.37
68077;BME280;54866;53.458;14.540;2022-07-29T09:35:30;101191.62;;;25.41;42.06
68077;BME280;54866;53.458;14.540;2022-07-29T09:38:11;101187.92;;;25.47;41.43
68077;BME280;54866;53.458;14.540;2022-07-29T09:40:41;101186.98;;;25.75;40.65
68077;BME280;54866;53.458;14.540;2022-07-29T09:43:25;101187.14;;;25.71;40.80
68077;BME280;54866;53.458;14.540;2022-07-29T09:45:55;101188.58;;;25.83;40.82
68077;BME280;54866;53.458;14.540;2022-07-29T09:48:26;101183.73;;;26.08;40.37
68077;BME280;54866;53.458;14.540;2022-07-29T09:50:56;101179.20;;;26.73;38.86
68077;BME280;54866;53.458;14.540;2022-07-29T09:53:36;101176.90;;;27.11;37.67
68077;BME280;54866;53.458;14.540;2022-07-29T09:56:07;101180.69;;;27.13;37.44
68077;BME280;54866;53.458;14.540;2022-07-29T09:58:38;101174.53;;;27.06;37.77
68077;BME280;54866;53.458;14.540;2022-07-29T10:01:08;101178.77;;;27.27;37.31
68077;BME280;54866;53.458;14.540;2022-07-29T10:03:51;101171.24;;;27.42;36.95
68077;BME280;54866;53.458;14.540;2022-07-29T10:06:21;101172.33;;;27.72;37.22
68077;BME280;54866;53.458;14.540;2022-07-29T10:08:51;101170.38;;;27.83;35.82
68077;BME280;54866;53.458;14.540;2022-07-29T10:11:21;101167.94;;;27.70;36.52
68077;BME280;54866;53.458;14.540;2022-07-29T10:13:51;101167.75;;;28.01;36.20
68077;BME280;54866;53.458;14.540;2022-07-29T10:16:21;101158.70;;;27.79;35.87
68077;BME280;54866;53.458;14.540;2022-07-29T10:18:51;101166.80;;;27.38;36.55
68077;BME280;54866;53.458;14.540;2022-07-29T10:21:22;101165.98;;;27.33;36.73
68077;BME280;54866;53.458;14.540;2022-07-29T10:23:52;101166.16;;;27.38;36.66
68077;BME280;54866;53.458;14.540;2022-07-29T10:26:22;101168.29;;;27.33;36.35
68077;BME280;54866;53.458;14.540;2022-07-29T10:28:53;101163.95;;;27.51;35.66
68077;BME280;54866;53.458;14.540;2022-07-29T10:31:29;101167.09;;;27.64;35.48
68077;BME280;54866;53.458;14.540;2022-07-29T10:34:10;101162.60;;;27.73;35.07
68077;BME280;54866;53.458;14.540;2022-07-29T10:36:54;101163.98;;;27.81;35.45
68077;BME280;54866;53.458;14.540;2022-07-29T10:39:38;101161.36;;;28.00;35.00
68077;BME280;54866;53.458;14.540;2022-07-29T10:42:11;101159.44;;;28.23;35.10
68077;BME280;54866;53.458;14.540;2022-07-29T10:44:44;101151.65;;;28.42;34.66
68077;BME280;54866;53.458;14.540;2022-07-29T10:47:23;101150.52;;;28.46;33.61
68077;BME280;54866;53.458;14.540;2022-07-29T10:50:01;101147.45;;;28.47;33.01
68077;BME280;54866;53.458;14.540;2022-07-29T10:52:54;101146.71;;;28.63;33.26
68077;BME280;54866;53.458;14.540;2022-07-29T10:55:38;101136.70;;;29.04;31.98
68077;BME280;54866;53.458;14.540;2022-07-29T10:58:15;101134.89;;;28.86;31.36
68077;BME280;54866;53.458;14.540;2022-07-29T11:00:45;101143.03;;;28.52;32.24
68077;BME280;54866;53.458;14.540;2022-07-29T11:03:47;101137.63;;;28.34;32.64
68077;BME280;54866;53.458;14.540;2022-07-29T11:06:20;101142.70;;;28.10;33.31
68077;BME280;54866;53.458;14.540;2022-07-29T11:09:19;101139.54;;;28.05;33.35
68077;BME280;54866;53.458;14.540;2022-07-29T11:11:49;101134.25;;;27.77;33.85
68077;BME280;54866;53.458;14.540;2022-07-29T11:14:19;101137.38;;;27.91;34.28
68077;BME280;54866;53.458;14.540;2022-07-29T11:17:08;101135.66;;;28.09;33.81
68077;BME280;54866;53.458;14.540;2022-07-29T11:19:38;101132.40;;;28.35;32.97
68077;BME280;54866;53.458;14.540;2022-07-29T11:22:11;101129.14;;;28.70;33.06
68077;BME280;54866;53.458;14.540;2022-07-29T11:24:41;101128.00;;;29.18;32.13
68077;BME280;54866;53.458;14.540;2022-07-29T11:27:13;101122.02;;;29.38;31.84
68077;BME280;54866;53.458;14.540;2022-07-29T11:29:51;101118.55;;;29.77;31.22
68077;BME280;54866;53.458;14.540;2022-07-29T11:32:22;101116.17;;;29.95;30.29
68077;BME280;54866;53.458;14.540;2022-07-29T11:35:13;101117.84;;;29.75;29.28
68077;BME280;54866;53.458;14.540;2022-07-29T11:37:43;101123.50;;;29.51;29.81
68077;BME280;54866;53.458;14.540;2022-07-29T11:40:16;101118.52;;;29.31;29.97
68077;BME280;54866;53.458;14.540;2022-07-29T11:42:50;101118.94;;;28.90;30.15
68077;BME280;54866;53.458;14.540;2022-07-29T11:45:44;101125.14;;;28.43;30.72
68077;BME280;54866;53.458;14.540;2022-07-29T11:48:18;101128.04;;;28.02;31.87
68077;BME280;54866;53.458;14.540;2022-07-29T11:50:48;101124.77;;;27.66;32.48
68077;BME280;54866;53.458;14.540;2022-07-29T11:53:18;101126.92;;;27.58;33.12
68077;BME280;54866;53.458;14.540;2022-07-29T11:55:55;101121.85;;;27.62;32.80
68077;BME280;54866;53.458;14.540;2022-07-29T11:58:25;101127.83;;;27.49;32.63
68077;BME280;54866;53.458;14.540;2022-07-29T12:00:56;101122.29;;;27.38;32.38
68077;BME280;54866;53.458;14.540;2022-07-29T12:03:28;101117.21;;;27.50;32.40
68077;BME280;54866;53.458;14.540;2022-07-29T12:05:59;101120.54;;;27.58;32.01
68077;BME280;54866;53.458;14.540;2022-07-29T12:08:29;101114.16;;;27.81;30.87
68077;BME280;54866;53.458;14.540;2022-07-29T12:10:59;101111.05;;;27.73;30.73
68077;BME280;54866;53.458;14.540;2022-07-29T12:13:39;101105.19;;;27.62;30.70
68077;BME280;54866;53.458;14.540;2022-07-29T12:16:10;101098.50;;;27.56;31.32
68077;BME280;54866;53.458;14.540;2022-07-29T12:18:39;101097.60;;;27.67;31.83
68077;BME280;54866;53.458;14.540;2022-07-29T12:21:09;101093.39;;;27.99;31.60
68077;BME280;54866;53.458;14.540;2022-07-29T12:23:39;101096.30;;;28.23;30.82
68077;BME280;54866;53.458;14.540;2022-07-29T12:26:21;101095.22;;;28.31;30.00
68077;BME280;54866;53.458;14.540;2022-07-29T12:28:51;101090.15;;;28.33;27.28
68077;BME280;54866;53.458;14.540;2022-07-29T12:31:21;101092.20;;;28.32;26.52
68077;BME280;54866;53.458;14.540;2022-07-29T12:33:54;101095.29;;;28.11;26.30
68077;BME280;54866;53.458;14.540;2022-07-29T12:36:24;101097.05;;;27.71;25.62
68077;BME280;54866;53.458;14.540;2022-07-29T12:38:54;101097.91;;;27.46;25.76
68077;BME280;54866;53.458;14.540;2022-07-29T12:41:24;101101.90;;;27.21;26.04
68077;BME280;54866;53.458;14.540;2022-07-29T12:43:55;101095.58;;;27.03;26.64
68077;BME280;54866;53.458;14.540;2022-07-29T12:46:25;101092.27;;;26.87;26.89
68077;BME280;54866;53.458;14.540;2022-07-29T12:48:56;101082.91;;;26.81;27.39
68077;BME280;54866;53.458;14.540;2022-07-29T12:51:37;101085.49;;;26.83;26.66
68077;BME280;54866;53.458;14.540;2022-07-29T12:54:09;101089.89;;;26.70;26.21
68077;BME280;54866;53.458;14.540;2022-07-29T12:56:40;101088.80;;;26.69;26.05
68077;BME280;54866;53.458;14.540;2022-07-29T12:59:18;101090.45;;;26.77;26.38
68077;BME280;54866;53.458;14.540;2022-07-29T13:01:50;101088.02;;;27.01;26.98
68077;BME280;54866;53.458;14.540;2022-07-29T13:04:28;101090.91;;;27.29;26.25
68077;BME280;54866;53.458;14.540;2022-07-29T13:07:02;101090.70;;;27.35;26.49